Decoded Metar for KLSF (FORT BENNING in GA, USA) (IATA:LSF) | Meteo·Mobile Aviation Weather
aviador You're here:

KLSF Decoded Metar

FORT BENNING in GA, USA
Report Time2019-02-16 06:30:00
UTC Time2019-02-16 06:56:56
Flight Rules mvfr MVFR
Wind170° at 05 kt
W.Decomp.*RWY 15: 4.6 kt HW 1.9 kt RCW
W.Rank170° ranks 15
Current wind is below 170° avg. (5.3)
Visibility9999 m
Phenomena:N/A
Clouds:Overcast 013 Hf
Ceiling1,300 ft
Temp16°C (ISA +1)
Dew Point16°C (100% RH)
QNH1009 hPa
Density Alt784 ft
Elevation233 ft
Report Wrong Elevation
Raw Report
SPECI KLSF 160630Z AUTO 17005KT 10SM OVC013 16/16 A2980 RMK AO2 RAE30
SLP095=

Extra information for KLSF:More info

Metar Taf Metar & Taf Last 4 Metars F.Rules Stats Wind Profile Meteogram Temp Stats Airport Information Weather charts Add Link Nearby VenuesMetar ALERT Operation Metar Decoded Social comments

AIRNAV info for KLSF